createdAt,value
2023-04-27T00:02:14.771Z,53.24
2023-04-27T00:04:43.358Z,52.12
2023-04-27T00:07:11.831Z,52.46
2023-04-27T00:09:39.735Z,52.79
2023-04-27T00:12:08.007Z,52.51
2023-04-27T00:14:37.255Z,52.58
2023-04-27T00:17:05.181Z,53.34
2023-04-27T00:19:33.728Z,52.38
2023-04-27T00:22:01.622Z,52.44
2023-04-27T00:24:29.662Z,52.70
2023-04-27T00:26:57.822Z,52.73
2023-04-27T00:29:25.836Z,52.60
2023-04-27T00:31:55.111Z,53.40
2023-04-27T00:34:23.714Z,52.92
2023-04-27T00:36:51.558Z,52.63
2023-04-27T00:39:21.364Z,52.38
2023-04-27T00:41:49.282Z,52.73
2023-04-27T00:44:23.884Z,52.44
2023-04-27T00:46:52.165Z,52.47
2023-04-27T00:49:22.445Z,52.22
2023-04-27T00:51:50.550Z,52.33
2023-04-27T00:54:20.984Z,52.57
2023-04-27T00:56:50.158Z,53.47
2023-04-27T00:59:18.447Z,53.36
2023-04-27T01:01:47.717Z,54.22
2023-04-27T01:04:17.042Z,53.91
2023-04-27T01:06:46.752Z,54.75
2023-04-27T01:09:16.502Z,54.52
2023-04-27T01:11:44.480Z,54.00
2023-04-27T01:14:12.501Z,54.24
2023-04-27T01:16:40.595Z,53.96
2023-04-27T01:19:10.834Z,53.50
2023-04-27T01:21:38.897Z,54.45
2023-04-27T01:24:09.668Z,54.39
2023-04-27T01:26:39.001Z,55.04
2023-04-27T01:29:06.908Z,54.44
2023-04-27T01:31:35.505Z,54.52
2023-04-27T01:34:03.502Z,54.36
2023-04-27T01:36:31.845Z,54.17
2023-04-27T01:38:59.802Z,54.84
2023-04-27T01:41:29.131Z,54.29
2023-04-27T01:43:57.459Z,55.35
2023-04-27T01:46:25.426Z,54.71
2023-04-27T01:48:53.421Z,54.87
2023-04-27T01:51:21.350Z,54.05
2023-04-27T01:53:49.493Z,54.48
2023-04-27T01:56:17.679Z,54.44
2023-04-27T01:58:47.234Z,53.97
2023-04-27T02:01:15.121Z,55.59
2023-04-27T02:03:43.259Z,54.16
2023-04-27T02:06:13.030Z,54.92
2023-04-27T02:08:41.006Z,55.38
2023-04-27T02:11:10.108Z,55.05
2023-04-27T02:13:38.029Z,54.43
2023-04-27T02:16:08.416Z,55.34
2023-04-27T02:18:36.360Z,54.75
2023-04-27T02:21:09.718Z,53.87
2023-04-27T02:23:38.010Z,54.93
2023-04-27T02:26:06.053Z,54.02
2023-04-27T02:28:34.009Z,54.37
2023-04-27T02:31:03.133Z,54.56
2023-04-27T02:33:33.064Z,54.71
2023-04-27T02:36:00.961Z,55.41
2023-04-27T02:38:30.679Z,54.20
2023-04-27T02:40:58.605Z,54.72
2023-04-27T02:43:28.046Z,55.01
2023-04-27T02:45:55.957Z,55.13
2023-04-27T02:48:23.946Z,54.11
2023-04-27T02:50:53.133Z,54.55
2023-04-27T02:53:21.019Z,55.49
2023-04-27T02:55:49.655Z,54.15
2023-04-27T02:58:17.945Z,54.78
2023-04-27T03:00:46.794Z,54.69
2023-04-27T03:03:16.285Z,54.32
2023-04-27T03:05:44.384Z,54.38
2023-04-27T03:08:13.647Z,54.40
2023-04-27T03:10:41.602Z,54.62
2023-04-27T03:13:11.038Z,55.29
2023-04-27T03:15:38.948Z,54.99
2023-04-27T03:18:07.310Z,55.21
2023-04-27T03:20:35.470Z,55.35
2023-04-27T03:23:03.319Z,55.71
2023-04-27T03:25:32.575Z,55.28
2023-04-27T03:28:00.707Z,55.02
2023-04-27T03:30:28.500Z,54.93
2023-04-27T03:32:56.417Z,54.50
2023-04-27T03:35:24.298Z,54.77
2023-04-27T03:37:52.127Z,53.77
2023-04-27T03:40:20.092Z,54.01
2023-04-27T03:42:49.415Z,54.14
2023-04-27T03:45:19.204Z,55.00
2023-04-27T03:47:47.205Z,55.47
2023-04-27T03:50:16.449Z,54.77
2023-04-27T03:52:44.394Z,55.01
2023-04-27T03:55:12.540Z,55.21
2023-04-27T03:57:43.001Z,54.76
2023-04-27T04:00:14.596Z,54.96
2023-04-27T04:02:43.036Z,55.17
2023-04-27T04:05:11.181Z,54.97
2023-04-27T04:07:39.257Z,54.90
2023-04-27T04:10:08.618Z,56.17
2023-04-27T04:12:38.228Z,55.32
2023-04-27T04:15:07.808Z,54.93
2023-04-27T04:17:37.144Z,55.68
2023-04-27T04:20:08.778Z,55.73
2023-04-27T04:22:36.666Z,55.96
2023-04-27T04:25:05.255Z,55.06
2023-04-27T04:27:33.568Z,54.11
2023-04-27T04:30:01.867Z,55.13
2023-04-27T04:32:31.227Z,55.04
2023-04-27T04:35:01.548Z,54.57
2023-04-27T04:37:30.436Z,54.09
2023-04-27T04:39:58.389Z,53.78
2023-04-27T04:42:27.663Z,54.76
2023-04-27T04:44:55.782Z,53.87
2023-04-27T04:47:23.724Z,53.74
2023-04-27T04:49:53.274Z,54.65
2023-04-27T04:52:22.690Z,54.75
2023-04-27T04:54:52.776Z,54.52
2023-04-27T04:57:22.362Z,54.76
2023-04-27T04:59:50.316Z,53.22
2023-04-27T05:02:18.195Z,54.25
2023-04-27T05:04:46.337Z,53.47
2023-04-27T05:07:15.242Z,53.74
2023-04-27T05:09:45.586Z,53.52
2023-04-27T05:12:13.412Z,53.74
2023-04-27T05:14:41.353Z,53.62
2023-04-27T05:17:09.205Z,53.74
2023-04-27T05:19:37.116Z,52.96
2023-04-27T05:22:05.031Z,53.37
2023-04-27T05:24:32.901Z,53.91
2023-04-27T05:27:02.555Z,53.59
2023-04-27T05:29:30.711Z,53.92
2023-04-27T05:31:58.972Z,53.36
2023-04-27T05:34:26.929Z,52.31
2023-04-27T05:36:54.804Z,52.92
2023-04-27T05:39:22.643Z,52.11
2023-04-27T05:41:50.521Z,52.00
2023-04-27T05:44:19.748Z,52.06
2023-04-27T05:46:47.627Z,52.39
2023-04-27T05:49:16.026Z,51.87
2023-04-27T05:51:44.001Z,50.97
2023-04-27T05:54:11.841Z,50.77
2023-04-27T05:56:39.693Z,51.20
2023-04-27T05:59:07.625Z,51.38
2023-04-27T06:01:36.863Z,50.26
2023-04-27T06:04:04.998Z,50.13
2023-04-27T06:06:33.989Z,51.02
2023-04-27T06:09:01.856Z,50.25
2023-04-27T06:11:29.724Z,50.15
2023-04-27T06:13:57.602Z,50.60
2023-04-27T06:16:25.587Z,49.29
2023-04-27T06:18:54.828Z,48.71
2023-04-27T06:21:22.695Z,48.69
2023-04-27T06:23:50.686Z,49.52
2023-04-27T06:26:18.784Z,49.38
2023-04-27T06:28:46.780Z,47.74
2023-04-27T06:31:15.249Z,49.05
2023-04-27T06:33:43.239Z,47.65
2023-04-27T06:36:12.536Z,47.78
2023-04-27T06:38:40.531Z,48.16
2023-04-27T06:41:08.413Z,47.50
2023-04-27T06:43:36.333Z,49.26
2023-04-27T06:46:04.580Z,48.76
2023-04-27T06:48:32.478Z,48.02
2023-04-27T06:51:00.693Z,47.45
2023-04-27T06:53:29.918Z,47.61
2023-04-27T06:55:57.789Z,47.92
2023-04-27T06:58:25.637Z,47.25
2023-04-27T07:00:53.722Z,46.46
2023-04-27T07:03:22.526Z,45.50
2023-04-27T07:05:51.593Z,45.99
2023-04-27T07:08:19.586Z,45.78
2023-04-27T07:10:48.810Z,45.88
2023-04-27T07:13:16.775Z,45.86
2023-04-27T07:15:44.931Z,46.93
2023-04-27T07:18:13.173Z,48.17
2023-04-27T07:20:42.369Z,47.33
2023-04-27T07:23:10.742Z,45.92
2023-04-27T07:25:40.264Z,47.07
2023-04-27T07:28:09.898Z,45.65
2023-04-27T07:30:38.083Z,45.34
2023-04-27T07:33:07.258Z,44.57
2023-04-27T07:35:35.600Z,46.44
2023-04-27T07:38:03.867Z,45.51
2023-04-27T07:40:32.814Z,45.00
2023-04-27T07:43:00.954Z,44.90
2023-04-27T07:45:32.860Z,44.82
2023-04-27T07:48:02.233Z,44.67
2023-04-27T07:50:30.942Z,44.24
2023-04-27T07:52:59.320Z,43.09
2023-04-27T07:55:28.669Z,42.22
2023-04-27T07:57:57.097Z,42.14
2023-04-27T08:00:26.399Z,42.24
2023-04-27T08:02:56.571Z,43.14
2023-04-27T08:05:24.941Z,43.94
2023-04-27T08:07:54.196Z,43.73
2023-04-27T08:10:22.863Z,45.71
2023-04-27T08:12:50.986Z,42.88
2023-04-27T08:15:18.965Z,42.33
2023-04-27T08:17:47.349Z,42.86
2023-04-27T08:20:16.837Z,41.50
2023-04-27T08:22:45.031Z,43.19
2023-04-27T08:25:12.989Z,42.68
2023-04-27T08:27:41.225Z,42.20
2023-04-27T08:30:10.354Z,42.32
2023-04-27T08:32:38.375Z,43.54
2023-04-27T08:35:07.171Z,42.00
2023-04-27T08:37:36.624Z,42.50
2023-04-27T08:40:08.263Z,44.04
2023-04-27T08:42:36.404Z,43.04
2023-04-27T08:45:05.055Z,44.07
2023-04-27T08:47:42.556Z,42.85
2023-04-27T08:50:12.719Z,43.45
2023-04-27T08:52:44.747Z,43.31
2023-04-27T08:55:15.102Z,41.62
2023-04-27T08:57:55.251Z,42.83
2023-04-27T09:00:23.656Z,42.38
2023-04-27T09:02:51.803Z,42.39
2023-04-27T09:05:20.578Z,43.07
2023-04-27T09:08:00.969Z,41.48
2023-04-27T09:10:30.115Z,40.04
2023-04-27T09:13:02.052Z,37.84
2023-04-27T09:15:30.186Z,37.45
2023-04-27T09:17:58.968Z,37.54
2023-04-27T09:20:28.718Z,38.58
2023-04-27T09:22:58.385Z,39.56
2023-04-27T09:25:30.059Z,40.47
2023-04-27T09:27:59.019Z,41.53
2023-04-27T09:30:27.247Z,42.08
2023-04-27T09:33:26.706Z,42.13
2023-04-27T09:35:55.305Z,41.14
2023-04-27T09:38:24.166Z,41.82
2023-04-27T09:40:54.747Z,39.33
2023-04-27T09:43:23.360Z,39.77
2023-04-27T09:45:52.197Z,38.47
2023-04-27T09:48:21.693Z,37.38
2023-04-27T09:50:51.424Z,36.90
2023-04-27T09:53:21.776Z,35.02
2023-04-27T09:56:00.868Z,33.79
2023-04-27T09:58:48.498Z,32.89
2023-04-27T10:01:26.323Z,34.14
2023-04-27T10:04:06.539Z,32.67
2023-04-27T10:07:02.150Z,32.96
2023-04-27T10:09:37.073Z,31.26
2023-04-27T10:12:20.815Z,31.29
2023-04-27T10:14:53.534Z,30.35
2023-04-27T10:17:26.550Z,30.54
2023-04-27T10:19:58.455Z,33.45
2023-04-27T10:22:39.230Z,33.52
2023-04-27T10:25:16.536Z,33.46
2023-04-27T10:27:52.200Z,34.82
2023-04-27T10:30:21.411Z,33.77
2023-04-27T10:32:53.808Z,34.96
2023-04-27T10:35:23.130Z,34.57
2023-04-27T10:37:52.196Z,34.88
2023-04-27T10:40:20.139Z,35.65
2023-04-27T10:42:50.178Z,33.51
2023-04-27T10:45:31.545Z,33.72
2023-04-27T10:48:02.053Z,31.28
2023-04-27T10:50:31.380Z,29.27
2023-04-27T10:53:02.528Z,28.75
2023-04-27T10:55:30.856Z,30.43
2023-04-27T10:58:00.296Z,29.44
2023-04-27T11:00:30.053Z,30.93
2023-04-27T11:02:59.466Z,31.76
2023-04-27T11:05:33.028Z,32.10
2023-04-27T11:08:08.376Z,32.39
2023-04-27T11:10:39.523Z,32.63
2023-04-27T11:13:11.378Z,33.44
2023-04-27T11:15:46.957Z,33.97
2023-04-27T11:18:15.713Z,33.57
2023-04-27T11:20:44.885Z,33.31
2023-04-27T11:23:12.928Z,34.84
2023-04-27T11:25:40.819Z,34.58
2023-04-27T11:28:19.501Z,31.80
2023-04-27T11:30:47.742Z,31.71
2023-04-27T11:33:15.967Z,32.84
2023-04-27T11:35:43.872Z,33.83
2023-04-27T11:38:18.103Z,34.52
2023-04-27T11:40:46.206Z,35.77
2023-04-27T11:43:14.871Z,34.57
2023-04-27T11:45:47.295Z,34.43
2023-04-27T11:48:15.953Z,35.64
2023-04-27T11:50:47.411Z,35.25
2023-04-27T11:53:17.413Z,34.88
2023-04-27T11:55:52.997Z,35.92
2023-04-27T11:58:22.281Z,34.60
2023-04-27T12:00:51.555Z,33.79
2023-04-27T12:03:19.614Z,33.64
2023-04-27T12:05:51.604Z,32.47
2023-04-27T12:08:19.693Z,31.91
2023-04-27T12:10:47.831Z,32.61
2023-04-27T12:13:16.204Z,32.74
2023-04-27T12:15:44.659Z,33.74
2023-04-27T12:18:14.139Z,34.10
2023-04-27T12:20:42.250Z,35.70
2023-04-27T12:23:10.385Z,35.22
2023-04-27T12:25:38.493Z,34.87
2023-04-27T12:28:06.462Z,35.54
2023-04-27T12:30:34.388Z,34.48
2023-04-27T12:33:06.763Z,35.04
2023-04-27T12:35:36.766Z,33.83
2023-04-27T12:38:04.911Z,35.36
2023-04-27T12:40:32.870Z,34.08
2023-04-27T12:43:01.549Z,32.63
2023-04-27T12:45:29.546Z,32.84
2023-04-27T12:48:02.523Z,31.58
2023-04-27T12:50:32.574Z,34.86
2023-04-27T12:53:02.030Z,34.80
2023-04-27T12:55:34.090Z,35.59
2023-04-27T12:58:02.512Z,33.75
2023-04-27T13:00:30.587Z,34.52
2023-04-27T13:02:59.387Z,34.05
2023-04-27T13:05:28.300Z,34.05
2023-04-27T13:07:57.798Z,34.37
2023-04-27T13:10:27.108Z,34.41
2023-04-27T13:12:55.811Z,32.97
2023-04-27T13:15:23.693Z,33.30
2023-04-27T13:17:53.193Z,34.25
2023-04-27T13:20:21.393Z,35.15
2023-04-27T13:22:49.311Z,34.33
2023-04-27T13:25:19.787Z,34.90
2023-04-27T13:27:49.175Z,34.48
2023-04-27T13:30:17.207Z,33.72
2023-04-27T13:32:45.038Z,31.94
2023-04-27T13:35:12.956Z,32.07
2023-04-27T13:37:42.328Z,32.00
2023-04-27T13:40:12.559Z,32.37
2023-04-27T13:42:41.130Z,32.22
2023-04-27T13:45:11.473Z,33.07
2023-04-27T13:47:40.692Z,32.48
2023-04-27T13:50:11.066Z,31.67
2023-04-27T13:52:39.726Z,31.97
2023-04-27T13:55:09.828Z,30.73
2023-04-27T13:57:38.453Z,31.84
2023-04-27T14:00:08.035Z,29.71
2023-04-27T14:02:38.738Z,32.18
2023-04-27T14:05:07.789Z,32.31
2023-04-27T14:07:36.522Z,32.53
2023-04-27T14:10:05.303Z,31.57
2023-04-27T14:12:33.508Z,32.71
2023-04-27T14:15:01.416Z,32.33
2023-04-27T14:17:29.363Z,33.43
2023-04-27T14:19:58.628Z,32.17
2023-04-27T14:22:26.585Z,34.24
2023-04-27T14:24:56.404Z,34.26
2023-04-27T14:27:24.623Z,34.44
2023-04-27T14:29:52.612Z,35.12
2023-04-27T14:32:21.205Z,34.08
2023-04-27T14:34:49.340Z,32.83
2023-04-27T14:37:18.649Z,33.93
2023-04-27T14:39:46.910Z,33.35
2023-04-27T14:42:14.887Z,34.94
2023-04-27T14:44:42.744Z,34.73
2023-04-27T14:47:10.774Z,33.94
2023-04-27T14:49:38.898Z,34.83
2023-04-27T14:52:06.974Z,35.39
2023-04-27T14:54:38.421Z,33.70
2023-04-27T14:57:06.396Z,34.29
2023-04-27T14:59:34.619Z,33.59
2023-04-27T15:02:02.963Z,33.86
2023-04-27T15:04:30.998Z,35.12
2023-04-27T15:06:58.859Z,34.25
2023-04-27T15:09:26.794Z,35.59
2023-04-27T15:11:56.078Z,35.63
2023-04-27T15:14:23.966Z,36.04
2023-04-27T15:16:52.162Z,36.04
2023-04-27T15:19:20.046Z,35.67
2023-04-27T15:21:48.614Z,33.68
2023-04-27T15:24:16.515Z,35.19
2023-04-27T15:26:44.423Z,34.96
2023-04-27T15:29:13.836Z,35.57
2023-04-27T15:31:41.876Z,36.58
2023-04-27T15:34:09.845Z,35.59
2023-04-27T15:36:37.780Z,33.98
2023-04-27T15:39:08.827Z,33.50
2023-04-27T15:41:38.088Z,35.25
2023-04-27T15:44:06.908Z,36.44
2023-04-27T15:46:36.469Z,35.69
2023-04-27T15:49:04.355Z,35.97
2023-04-27T15:51:32.377Z,35.85
2023-04-27T15:54:00.454Z,35.31
2023-04-27T15:56:30.579Z,34.79
2023-04-27T15:58:58.794Z,34.02
2023-04-27T16:01:27.627Z,35.30
2023-04-27T16:03:57.391Z,36.00
2023-04-27T16:06:33.156Z,36.47
2023-04-27T16:09:03.237Z,35.85
2023-04-27T16:11:31.220Z,35.51
2023-04-27T16:13:59.577Z,35.63
2023-04-27T16:16:27.824Z,34.87
2023-04-27T16:18:58.499Z,33.85
2023-04-27T16:21:26.940Z,33.92
2023-04-27T16:23:55.093Z,34.07
2023-04-27T16:26:23.519Z,32.68
2023-04-27T16:28:52.516Z,33.37
2023-04-27T16:31:20.532Z,33.42
2023-04-27T16:33:48.403Z,33.14
2023-04-27T16:36:17.683Z,33.49
2023-04-27T16:38:46.161Z,34.03
2023-04-27T16:41:14.266Z,33.90
2023-04-27T16:43:42.081Z,32.78
2023-04-27T16:46:11.775Z,33.51
2023-04-27T16:48:39.695Z,33.12
2023-04-27T16:51:07.830Z,33.31
2023-04-27T16:53:37.655Z,33.41
2023-04-27T16:56:06.133Z,33.41
2023-04-27T16:58:36.005Z,33.04
2023-04-27T17:01:04.722Z,32.99
2023-04-27T17:03:34.590Z,33.43
2023-04-27T17:06:03.011Z,33.38
2023-04-27T17:08:30.937Z,36.31
2023-04-27T17:11:00.208Z,34.56
2023-04-27T17:13:28.143Z,35.40
2023-04-27T17:15:56.145Z,35.05
2023-04-27T17:18:23.993Z,34.41
2023-04-27T17:20:52.055Z,35.19
2023-04-27T17:23:20.049Z,36.16
2023-04-27T17:25:47.923Z,35.61
2023-04-27T17:28:17.147Z,36.34
2023-04-27T17:30:45.092Z,34.42
2023-04-27T17:33:14.712Z,36.85
2023-04-27T17:35:44.309Z,37.30
2023-04-27T17:38:12.337Z,35.91
2023-04-27T17:40:40.228Z,35.88
2023-04-27T17:43:10.247Z,35.43
2023-04-27T17:45:39.515Z,37.49
2023-04-27T17:48:07.731Z,37.78
2023-04-27T17:50:36.161Z,37.70
2023-04-27T17:53:04.153Z,36.43
2023-04-27T17:55:32.385Z,34.95
2023-04-27T17:58:00.343Z,36.34
2023-04-27T18:00:28.245Z,35.66
2023-04-27T18:02:57.611Z,35.37
2023-04-27T18:05:25.764Z,36.71
2023-04-27T18:07:54.021Z,36.85
2023-04-27T18:10:21.927Z,36.37
2023-04-27T18:12:49.831Z,33.96
2023-04-27T18:15:17.709Z,36.36
2023-04-27T18:17:45.657Z,36.18
2023-04-27T18:20:15.661Z,36.74
2023-04-27T18:22:43.622Z,36.23
2023-04-27T18:25:13.106Z,37.48
2023-04-27T18:27:41.483Z,36.82
2023-04-27T18:30:09.759Z,36.16
2023-04-27T18:32:38.161Z,38.79
2023-04-27T18:35:06.846Z,37.67
2023-04-27T18:37:36.179Z,41.11
2023-04-27T18:40:05.825Z,37.57
2023-04-27T18:42:33.741Z,38.96
2023-04-27T18:45:01.882Z,38.14
2023-04-27T18:47:29.751Z,37.87
2023-04-27T18:49:57.671Z,38.07
2023-04-27T18:52:25.601Z,40.06
2023-04-27T18:54:54.884Z,39.53
2023-04-27T18:57:23.257Z,37.93
2023-04-27T18:59:51.338Z,39.07
2023-04-27T19:02:19.251Z,39.20
2023-04-27T19:04:52.746Z,37.98
2023-04-27T19:07:29.859Z,37.59
2023-04-27T19:09:59.094Z,38.14
2023-04-27T19:12:27.011Z,37.13
2023-04-27T19:14:54.968Z,39.11
2023-04-27T19:17:23.031Z,41.03
2023-04-27T19:19:51.135Z,38.97
2023-04-27T19:22:19.123Z,41.77
2023-04-27T19:24:47.000Z,41.59
2023-04-27T19:27:16.323Z,39.66
2023-04-27T19:29:51.768Z,40.99
2023-04-27T19:32:22.208Z,42.29
2023-04-27T19:34:50.291Z,42.23
2023-04-27T19:37:18.183Z,44.08
2023-04-27T19:39:46.908Z,44.00
2023-04-27T19:42:16.342Z,41.19
2023-04-27T19:44:44.280Z,43.56
2023-04-27T19:47:12.162Z,44.10
2023-04-27T19:49:40.279Z,46.24
2023-04-27T19:52:08.187Z,43.03
2023-04-27T19:54:38.295Z,42.82
2023-04-27T19:57:06.639Z,43.41
2023-04-27T19:59:36.159Z,46.13
2023-04-27T20:02:04.393Z,43.89
2023-04-27T20:04:33.070Z,43.73
2023-04-27T20:07:01.834Z,44.86
2023-04-27T20:09:30.686Z,43.96
2023-04-27T20:11:58.582Z,45.28
2023-04-27T20:14:29.020Z,44.18
2023-04-27T20:16:58.316Z,44.43
2023-04-27T20:19:26.561Z,46.70
2023-04-27T20:21:54.551Z,46.38
2023-04-27T20:24:23.369Z,46.12
2023-04-27T20:26:51.279Z,46.96
2023-04-27T20:29:19.156Z,45.38
2023-04-27T20:31:48.548Z,44.66
2023-04-27T20:34:18.149Z,44.05
2023-04-27T20:36:46.843Z,46.03
2023-04-27T20:39:15.337Z,46.47
2023-04-27T20:41:44.361Z,47.32
2023-04-27T20:44:13.108Z,50.42
2023-04-27T20:46:41.529Z,47.93
2023-04-27T20:49:09.482Z,47.05
2023-04-27T20:51:39.177Z,47.79
2023-04-27T20:54:07.156Z,46.27
2023-04-27T20:56:35.073Z,47.04
2023-04-27T20:59:03.145Z,49.42
2023-04-27T21:01:31.041Z,46.85
2023-04-27T21:03:59.089Z,46.54
2023-04-27T21:06:27.155Z,49.68
2023-04-27T21:08:57.519Z,48.39
2023-04-27T21:11:25.504Z,49.62
2023-04-27T21:13:53.819Z,52.42
2023-04-27T21:16:22.027Z,50.03
2023-04-27T21:18:49.906Z,47.29
2023-04-27T21:21:17.854Z,46.76
2023-04-27T21:23:48.096Z,47.03
2023-04-27T21:26:19.199Z,51.17
2023-04-27T21:28:47.454Z,48.99
2023-04-27T21:31:15.463Z,48.38
2023-04-27T21:33:43.600Z,51.31
2023-04-27T21:36:11.501Z,51.70
2023-04-27T21:38:39.400Z,47.79
2023-04-27T21:41:07.468Z,48.64
2023-04-27T21:43:36.725Z,48.54
2023-04-27T21:46:04.640Z,51.51
2023-04-27T21:48:32.563Z,52.86
2023-04-27T21:51:00.430Z,52.57
2023-04-27T21:53:28.789Z,50.51
2023-04-27T21:55:57.496Z,50.54
2023-04-27T21:58:25.630Z,52.02
2023-04-27T22:00:54.895Z,54.61
2023-04-27T22:03:23.449Z,52.64
2023-04-27T22:05:52.810Z,51.55
2023-04-27T22:08:21.773Z,51.93
2023-04-27T22:10:49.767Z,50.49
2023-04-27T22:13:19.259Z,49.50
2023-04-27T22:15:47.714Z,49.33
2023-04-27T22:18:17.066Z,53.47
2023-04-27T22:20:45.238Z,52.96
2023-04-27T22:23:13.188Z,53.49
2023-04-27T22:25:42.830Z,53.42
2023-04-27T22:28:11.051Z,52.44
2023-04-27T22:30:39.215Z,52.52
2023-04-27T22:33:07.337Z,52.04
2023-04-27T22:35:37.440Z,50.27
2023-04-27T22:38:07.017Z,50.11
2023-04-27T22:40:34.857Z,51.99
2023-04-27T22:43:02.755Z,54.44
2023-04-27T22:45:30.849Z,53.78
2023-04-27T22:47:58.827Z,54.41
2023-04-27T22:50:26.765Z,52.38
2023-04-27T22:52:56.049Z,53.13
2023-04-27T22:55:24.034Z,51.93
2023-04-27T22:57:53.759Z,55.14
2023-04-27T23:00:21.968Z,55.77
2023-04-27T23:02:50.039Z,55.60
2023-04-27T23:05:18.155Z,52.77
2023-04-27T23:07:46.420Z,50.49
2023-04-27T23:10:15.710Z,52.39
2023-04-27T23:12:43.612Z,50.00
2023-04-27T23:15:12.453Z,52.15
2023-04-27T23:17:40.460Z,47.76
2023-04-27T23:20:24.186Z,47.63
2023-04-27T23:22:55.034Z,46.42
2023-04-27T23:25:24.570Z,46.35
2023-04-27T23:27:52.989Z,46.37
2023-04-27T23:30:21.908Z,47.30
2023-04-27T23:32:49.991Z,49.78
2023-04-27T23:35:17.907Z,48.01
2023-04-27T23:37:45.845Z,47.84
2023-04-27T23:40:14.109Z,46.50
2023-04-27T23:42:43.433Z,46.73
2023-04-27T23:45:12.242Z,50.36
2023-04-27T23:47:40.241Z,48.71
2023-04-27T23:50:09.019Z,48.08
2023-04-27T23:52:37.177Z,48.60
2023-04-27T23:55:05.906Z,49.68
2023-04-27T23:57:33.771Z,50.39
